createdAt,value
2022-10-09T00:01:40.568Z,101975.38
2022-10-09T00:04:07.317Z,101976.22
2022-10-09T00:06:35.190Z,101970.00
2022-10-09T00:09:03.478Z,101978.84
2022-10-09T00:11:32.400Z,101976.16
2022-10-09T00:14:00.134Z,101986.72
2022-10-09T00:16:27.036Z,101974.34
2022-10-09T00:18:53.808Z,101976.09
2022-10-09T00:21:24.810Z,101976.94
2022-10-09T00:23:55.293Z,101978.69
2022-10-09T00:26:22.543Z,101991.00
2022-10-09T00:28:49.807Z,101984.81
2022-10-09T00:31:16.726Z,101992.72
2022-10-09T00:33:43.504Z,101990.94
2022-10-09T00:36:18.899Z,101988.19
2022-10-09T00:38:45.584Z,101988.16
2022-10-09T00:41:21.273Z,101987.25
2022-10-09T00:43:53.648Z,101982.81
2022-10-09T00:46:25.502Z,101987.19
2022-10-09T00:48:58.501Z,101991.56
2022-10-09T00:51:25.213Z,101995.00
2022-10-09T00:53:52.135Z,101995.91
2022-10-09T00:56:18.973Z,101994.97
2022-10-09T00:58:49.380Z,101995.81
2022-10-09T01:01:16.142Z,101989.63
2022-10-09T01:03:42.953Z,102001.94
2022-10-09T01:06:20.474Z,102000.13
2022-10-09T01:09:14.159Z,102003.59
2022-10-09T01:11:58.011Z,101993.84
2022-10-09T01:14:28.322Z,102000.84
2022-10-09T01:16:54.949Z,102006.16
2022-10-09T01:19:41.875Z,102003.41
2022-10-09T01:22:23.109Z,101999.88
2022-10-09T01:25:06.142Z,102006.03
2022-10-09T01:27:34.163Z,101998.88
2022-10-09T01:30:04.255Z,102002.38
2022-10-09T01:32:33.071Z,102005.03
2022-10-09T01:35:00.474Z,102006.78
2022-10-09T01:37:27.966Z,102005.88
2022-10-09T01:39:54.679Z,102011.13
2022-10-09T01:42:22.390Z,102004.94
2022-10-09T01:44:49.157Z,102010.22
2022-10-09T01:47:17.505Z,102010.19
2022-10-09T01:49:53.038Z,102008.34
2022-10-09T01:52:58.449Z,102006.56
2022-10-09T01:55:36.582Z,102015.28
2022-10-09T01:58:29.280Z,102012.59
2022-10-09T02:01:14.273Z,102002.81
2022-10-09T02:03:43.019Z,101996.56
2022-10-09T02:06:11.485Z,101995.66
2022-10-09T02:08:39.128Z,101996.50
2022-10-09T02:11:06.542Z,101992.88
2022-10-09T02:13:34.275Z,101997.28
2022-10-09T02:16:06.403Z,101999.03
2022-10-09T02:18:39.809Z,102001.69
2022-10-09T02:21:11.409Z,101991.94
2022-10-09T02:23:40.222Z,101993.63
2022-10-09T02:26:07.148Z,102003.31
2022-10-09T02:28:34.081Z,102009.47
2022-10-09T02:31:05.374Z,102009.47
2022-10-09T02:33:34.107Z,102007.69
2022-10-09T02:36:08.163Z,102006.78
2022-10-09T02:38:38.028Z,102003.22
2022-10-09T02:41:05.078Z,101999.69
2022-10-09T02:43:31.878Z,102008.47
2022-10-09T02:46:00.940Z,102007.56
2022-10-09T02:48:27.776Z,102008.38
2022-10-09T02:50:54.565Z,102009.22
2022-10-09T02:53:21.304Z,102008.38
2022-10-09T02:55:48.142Z,102015.38
2022-10-09T02:58:14.916Z,102019.78
2022-10-09T03:00:41.884Z,102009.13
2022-10-09T03:03:08.935Z,102017.06
2022-10-09T03:05:35.850Z,102012.63
2022-10-09T03:08:02.646Z,102015.28
2022-10-09T03:10:29.398Z,102016.09
2022-10-09T03:12:56.207Z,102013.41
2022-10-09T03:15:23.037Z,102016.00
2022-10-09T03:17:49.808Z,102014.25
2022-10-09T03:20:16.625Z,102018.66
2022-10-09T03:22:43.390Z,102013.31
2022-10-09T03:25:10.161Z,102016.81
2022-10-09T03:27:37.034Z,102017.66
2022-10-09T03:30:04.485Z,102011.47
2022-10-09T03:32:31.569Z,102013.22
2022-10-09T03:34:58.431Z,102014.03
2022-10-09T03:37:25.271Z,102019.34
2022-10-09T03:39:52.246Z,102013.94
2022-10-09T03:42:22.224Z,102011.31
2022-10-09T03:44:50.056Z,102026.28
2022-10-09T03:47:17.161Z,102013.03
2022-10-09T03:49:44.019Z,102016.50
2022-10-09T03:52:10.834Z,102022.69
2022-10-09T03:54:37.625Z,102023.53
2022-10-09T03:57:04.383Z,102027.91
2022-10-09T03:59:31.180Z,102022.63
2022-10-09T04:01:58.026Z,102032.25
2022-10-09T04:04:24.875Z,102034.00
2022-10-09T04:06:54.447Z,102036.63
2022-10-09T04:09:21.251Z,102033.03
2022-10-09T04:11:48.071Z,102036.53
2022-10-09T04:14:14.962Z,102037.44
2022-10-09T04:16:41.891Z,102043.56
2022-10-09T04:19:09.019Z,102046.16
2022-10-09T04:21:38.551Z,102039.97
2022-10-09T04:24:08.409Z,102047.91
2022-10-09T04:26:40.389Z,102045.22
2022-10-09T04:29:09.495Z,102046.06
2022-10-09T04:31:36.353Z,102045.16
2022-10-09T04:34:03.347Z,102045.13
2022-10-09T04:36:30.216Z,102047.75
2022-10-09T04:39:09.965Z,102045.03
2022-10-09T04:41:38.439Z,102047.63
2022-10-09T04:44:08.392Z,102041.38
2022-10-09T04:46:35.202Z,102045.75
2022-10-09T04:49:02.044Z,102051.91
2022-10-09T04:51:28.933Z,102052.75
2022-10-09T04:54:00.952Z,102042.94
2022-10-09T04:56:28.040Z,102049.06
2022-10-09T04:58:54.818Z,102061.41
2022-10-09T05:01:27.034Z,102052.50
2022-10-09T05:03:55.002Z,102060.38
2022-10-09T05:06:23.310Z,102060.38
2022-10-09T05:08:50.979Z,102057.69
2022-10-09T05:11:24.522Z,102054.13
2022-10-09T05:13:53.874Z,102060.25
2022-10-09T05:16:23.890Z,102060.22
2022-10-09T05:18:54.080Z,102062.84
2022-10-09T05:21:21.570Z,102059.25
2022-10-09T05:23:48.686Z,102062.72
2022-10-09T05:26:18.974Z,102066.22
2022-10-09T05:28:45.895Z,102058.22
2022-10-09T05:31:33.233Z,102066.09
2022-10-09T05:34:00.488Z,102058.97
2022-10-09T05:36:27.361Z,102059.81
2022-10-09T05:38:54.201Z,102057.13
2022-10-09T05:41:21.276Z,102059.75
2022-10-09T05:43:49.652Z,102060.63
2022-10-09T05:46:20.935Z,102064.16
2022-10-09T05:48:53.028Z,102053.56
2022-10-09T05:51:39.426Z,102064.16
2022-10-09T05:54:06.348Z,102063.25
2022-10-09T05:56:35.505Z,102062.34
2022-10-09T05:59:07.384Z,102062.41
2022-10-09T06:01:40.166Z,102073.91
2022-10-09T06:04:10.962Z,102058.88
2022-10-09T06:06:39.215Z,102064.28
2022-10-09T06:09:07.513Z,102070.47
2022-10-09T06:11:36.703Z,102072.34
2022-10-09T06:14:05.236Z,102068.03
2022-10-09T06:16:34.562Z,102076.06
2022-10-09T06:19:01.643Z,102068.19
2022-10-09T06:21:28.910Z,102075.34
2022-10-09T06:23:58.373Z,102074.63
2022-10-09T06:26:26.029Z,102083.56
2022-10-09T06:28:53.002Z,102081.94
2022-10-09T06:31:22.447Z,102085.59
2022-10-09T06:33:50.856Z,102077.81
2022-10-09T06:36:23.012Z,102086.81
2022-10-09T06:38:50.034Z,102093.13
2022-10-09T06:41:19.258Z,102089.78
2022-10-09T06:43:50.827Z,102086.38
2022-10-09T06:46:18.209Z,102077.69
2022-10-09T06:48:45.027Z,102072.56
2022-10-09T06:51:14.269Z,102078.84
2022-10-09T06:53:43.117Z,102080.72
2022-10-09T06:56:10.473Z,102088.88
2022-10-09T06:58:38.575Z,102075.72
2022-10-09T07:01:32.515Z,102078.53
2022-10-09T07:04:06.705Z,102076.03
2022-10-09T07:06:37.280Z,102080.56
2022-10-09T07:09:06.276Z,102087.78
2022-10-09T07:11:39.993Z,102090.59
2022-10-09T07:14:09.913Z,102087.25
2022-10-09T07:16:38.905Z,102083.06
2022-10-09T07:19:09.910Z,102086.88
2022-10-09T07:21:43.792Z,102084.75
2022-10-09T07:24:16.043Z,102100.44
2022-10-09T07:26:51.150Z,102090.44
2022-10-09T07:29:22.759Z,102099.69
2022-10-09T07:31:52.314Z,102106.13
2022-10-09T07:34:22.027Z,102100.91
2022-10-09T07:36:54.242Z,102092.94
2022-10-09T07:39:22.827Z,102100.94
2022-10-09T07:42:15.955Z,102108.03
2022-10-09T07:44:51.251Z,102116.91
2022-10-09T07:47:18.474Z,102112.50
2022-10-09T07:49:45.706Z,102117.81
2022-10-09T07:52:12.900Z,102117.81
2022-10-09T07:54:45.799Z,102114.28
2022-10-09T07:57:36.816Z,102109.00
2022-10-09T08:00:10.719Z,102112.63
2022-10-09T08:02:41.259Z,102112.69
2022-10-09T08:05:11.441Z,102115.41
2022-10-09T08:07:38.533Z,102109.31
2022-10-09T08:10:05.757Z,102103.13
2022-10-09T08:12:40.534Z,102104.13
2022-10-09T08:15:16.059Z,102104.19
2022-10-09T08:17:42.838Z,102110.41
2022-10-09T08:20:09.894Z,102104.25
2022-10-09T08:25:59.223Z,102102.56
2022-10-09T08:28:43.193Z,102114.19
2022-10-09T08:31:31.977Z,102117.78
2022-10-09T08:34:20.646Z,102116.09
2022-10-09T08:37:11.804Z,102124.19
2022-10-09T08:43:29.478Z,102117.31
2022-10-09T08:46:31.052Z,102120.97
2022-10-09T08:49:41.804Z,102116.66
2022-10-09T08:52:50.151Z,102112.25
2022-10-09T08:56:14.476Z,102115.91
2022-10-09T08:58:57.061Z,102103.53
2022-10-09T09:04:54.870Z,102101.84
2022-10-09T09:17:58.665Z,102087.88
2022-10-09T09:21:05.304Z,102097.72
2022-10-09T09:23:54.581Z,102090.59
2022-10-09T09:26:24.834Z,102089.78
2022-10-09T09:29:09.444Z,102092.44
2022-10-09T09:31:47.237Z,102088.03
2022-10-09T09:34:22.349Z,102086.28
2022-10-09T09:36:55.230Z,102084.50
2022-10-09T09:40:08.180Z,102080.06
2022-10-09T09:42:14.819Z,102081.00
2022-10-09T09:44:46.470Z,102079.22
2022-10-09T09:47:17.604Z,102081.00
2022-10-09T09:50:01.137Z,102070.38
2022-10-09T09:52:31.148Z,102069.47
2022-10-09T09:54:58.598Z,102078.38
2022-10-09T09:57:32.358Z,102067.72
2022-10-09T10:00:18.012Z,102059.72
2022-10-09T10:02:44.876Z,102065.06
2022-10-09T10:05:29.430Z,102060.59
2022-10-09T10:08:01.530Z,102052.59
2022-10-09T10:10:29.135Z,102050.84
2022-10-09T10:12:58.506Z,102048.19
2022-10-09T10:16:01.597Z,102046.41
2022-10-09T10:18:32.288Z,102052.66
2022-10-09T10:21:11.648Z,102047.34
2022-10-09T10:23:44.584Z,102042.91
2022-10-09T10:26:22.216Z,102048.25
2022-10-09T10:28:57.187Z,102047.41
2022-10-09T10:31:38.931Z,102041.16
2022-10-09T12:48:10.224Z,101861.81
2022-10-09T12:50:37.544Z,101852.00
2022-10-09T12:53:14.170Z,101854.63
2022-10-09T12:55:43.889Z,101845.72
2022-10-09T12:58:38.919Z,101842.13
2022-10-09T13:01:07.530Z,101830.53
2022-10-09T13:03:43.455Z,101826.06
2022-10-09T13:06:17.106Z,101828.72
2022-10-09T13:08:44.761Z,101826.03
2022-10-09T13:11:16.703Z,101827.78
2022-10-09T13:13:48.845Z,101815.25
2022-10-09T13:16:16.011Z,101810.78
2022-10-09T13:19:05.803Z,101820.56
2022-10-09T13:22:07.472Z,101818.75
2022-10-09T13:37:57.264Z,101799.88
2022-10-09T13:40:24.098Z,101792.69
2022-10-09T13:42:56.719Z,101785.50
2022-10-09T13:45:23.680Z,101793.53
2022-10-09T13:47:50.729Z,101783.72
2022-10-09T13:50:18.115Z,101776.53
2022-10-09T13:52:44.972Z,101783.66
2022-10-09T13:55:12.072Z,101788.97
2022-10-09T13:57:38.870Z,101781.84
2022-10-09T14:00:07.072Z,101780.91
2022-10-09T14:02:33.885Z,101780.84
2022-10-09T14:05:00.630Z,101772.75
2022-10-09T14:07:27.447Z,101761.16
2022-10-09T14:09:57.427Z,101761.16
2022-10-09T14:12:25.835Z,101768.28
2022-10-09T14:14:53.701Z,101757.56
2022-10-09T14:17:20.644Z,101764.69
2022-10-09T14:19:47.929Z,101759.31
2022-10-09T14:22:15.079Z,101754.84
2022-10-09T14:24:42.684Z,101755.78
2022-10-09T14:27:09.514Z,101740.63
2022-10-09T14:29:38.075Z,101737.06
2022-10-09T14:32:05.663Z,101737.94
2022-10-09T14:34:32.466Z,101730.78
2022-10-09T14:36:59.355Z,101730.81
2022-10-09T14:39:26.183Z,101727.22
2022-10-09T14:41:53.056Z,101726.34
2022-10-09T14:44:20.131Z,101721.88
2022-10-09T14:46:48.147Z,101717.41
2022-10-09T14:49:15.195Z,101711.22
2022-10-09T14:51:42.137Z,101711.22
2022-10-09T14:54:10.883Z,101710.31
2022-10-09T14:56:38.859Z,101707.66
2022-10-09T14:59:13.797Z,101702.31
2022-10-09T15:01:43.612Z,101696.09
2022-10-09T15:04:17.943Z,101689.84
2022-10-09T15:06:44.847Z,101684.56
2022-10-09T15:09:11.671Z,101693.47
2022-10-09T15:11:38.594Z,101685.50
2022-10-09T15:14:05.428Z,101686.41
2022-10-09T15:16:35.992Z,101681.03
2022-10-09T15:19:04.612Z,101673.97
2022-10-09T15:21:35.659Z,101681.09
2022-10-09T15:24:03.799Z,101672.19
2022-10-09T15:26:33.000Z,101668.63
2022-10-09T15:29:02.618Z,101659.75
2022-10-09T15:31:31.030Z,101659.75
2022-10-09T15:33:58.690Z,101655.34
2022-10-09T15:36:25.701Z,101645.53
2022-10-09T15:38:52.652Z,101641.13
2022-10-09T15:41:21.308Z,101646.50
2022-10-09T15:43:48.817Z,101638.50
2022-10-09T15:46:16.015Z,101643.00
2022-10-09T15:48:45.573Z,101627.88
2022-10-09T15:51:15.341Z,101629.66
2022-10-09T15:53:43.961Z,101628.78
2022-10-09T15:56:13.816Z,101627.00
2022-10-09T15:58:40.907Z,101623.50
2022-10-09T16:01:10.892Z,101617.28
2022-10-09T16:03:37.727Z,101622.66
2022-10-09T16:06:07.304Z,101617.34
2022-10-09T16:08:34.433Z,101613.84
2022-10-09T16:11:05.782Z,101607.66
2022-10-09T16:13:37.827Z,101610.38
2022-10-09T16:16:10.231Z,101605.97
2022-10-09T16:18:37.490Z,101605.13
2022-10-09T16:21:09.562Z,101605.19
2022-10-09T16:23:36.708Z,101593.63
2022-10-09T16:26:04.565Z,101603.50
2022-10-09T16:28:32.129Z,101590.16
2022-10-09T16:30:59.405Z,101602.72
2022-10-09T16:33:26.419Z,101584.06
2022-10-09T16:35:53.220Z,101587.63
2022-10-09T16:38:20.461Z,101587.66
2022-10-09T16:41:04.557Z,101585.94
2022-10-09T16:43:35.107Z,101578.84
2022-10-09T16:46:15.902Z,101585.16
2022-10-09T16:48:42.755Z,101587.88
2022-10-09T16:51:14.719Z,101579.00
2022-10-09T16:53:42.124Z,101571.94
2022-10-09T16:56:08.813Z,101571.97
2022-10-09T16:58:35.639Z,101575.56
2022-10-09T17:01:06.082Z,101574.75
2022-10-09T17:03:36.600Z,101573.91
2022-10-09T17:06:07.653Z,101567.69
2022-10-09T17:08:34.535Z,101564.19
2022-10-09T17:11:01.434Z,101572.25
2022-10-09T17:13:28.318Z,101566.91
2022-10-09T17:15:55.199Z,101565.16
2022-10-09T17:18:22.081Z,101559.84
2022-10-09T17:20:48.883Z,101556.28
2022-10-09T17:23:15.721Z,101561.66
2022-10-09T17:25:43.931Z,101559.03
2022-10-09T17:28:10.822Z,101559.03
2022-10-09T17:30:39.602Z,101553.69
2022-10-09T17:33:07.169Z,101561.72
2022-10-09T17:35:38.657Z,101555.50
2022-10-09T17:38:05.435Z,101560.00
2022-10-09T17:40:32.219Z,101560.88
2022-10-09T17:42:58.961Z,101562.69
2022-10-09T17:45:25.780Z,101563.56
2022-10-09T17:47:52.576Z,101571.59
2022-10-09T17:50:19.313Z,101576.94
2022-10-09T17:52:46.105Z,101570.72
2022-10-09T17:55:12.875Z,101573.41
2022-10-09T17:57:39.605Z,101572.53
2022-10-09T18:00:07.179Z,101569.84
2022-10-09T18:02:33.915Z,101573.44
2022-10-09T18:05:00.809Z,101567.19
2022-10-09T18:07:27.535Z,101567.22
2022-10-09T18:09:54.295Z,101562.78
2022-10-09T18:12:21.129Z,101562.75
2022-10-09T18:14:47.914Z,101560.13
2022-10-09T18:17:14.666Z,101565.47
2022-10-09T18:19:41.427Z,101561.94
2022-10-09T18:22:08.170Z,101556.59
2022-10-09T18:24:34.985Z,101553.06
2022-10-09T18:27:01.714Z,101547.75
2022-10-09T18:29:28.446Z,101547.75
2022-10-09T18:31:55.759Z,101547.75
2022-10-09T18:34:23.272Z,101549.53
2022-10-09T18:36:51.802Z,101549.56
2022-10-09T18:39:18.971Z,101539.78
2022-10-09T18:41:45.739Z,101544.25
2022-10-09T18:44:17.330Z,101541.59
2022-10-09T18:46:48.303Z,101531.81
2022-10-09T18:49:17.924Z,101530.00
2022-10-09T18:51:45.099Z,101531.78
2022-10-09T18:54:17.943Z,101532.66
2022-10-09T18:56:45.682Z,101534.47
2022-10-09T18:59:15.174Z,101534.44
2022-10-09T19:01:41.897Z,101532.69
2022-10-09T19:04:08.626Z,101527.34
2022-10-09T19:06:35.771Z,101524.69
2022-10-09T19:09:03.115Z,101528.25
2022-10-09T19:11:32.128Z,101523.81
2022-10-09T19:14:00.557Z,101524.69
2022-10-09T19:16:32.754Z,101522.94
2022-10-09T19:19:01.833Z,101514.06
2022-10-09T19:21:31.870Z,101522.94
2022-10-09T19:24:03.498Z,101517.59
2022-10-09T19:26:31.688Z,101524.72
2022-10-09T19:28:59.799Z,101520.28
2022-10-09T19:31:26.948Z,101515.81
2022-10-09T19:33:53.743Z,101520.25
2022-10-09T19:36:20.492Z,101508.75
2022-10-09T19:38:47.489Z,101515.84
2022-10-09T19:41:15.288Z,101513.19
2022-10-09T19:43:42.787Z,101511.41
2022-10-09T19:46:17.068Z,101503.44
2022-10-09T19:48:44.327Z,101506.97
2022-10-09T19:51:13.614Z,101503.41
2022-10-09T19:53:40.707Z,101514.06
2022-10-09T19:56:11.875Z,101506.97
2022-10-09T19:58:42.976Z,101500.75
2022-10-09T20:01:11.421Z,101497.22
2022-10-09T20:03:40.848Z,101501.66
2022-10-09T20:06:08.942Z,101498.09
2022-10-09T20:08:36.996Z,101488.34
2022-10-09T20:11:04.755Z,101496.31
2022-10-09T20:13:36.138Z,101495.44
2022-10-09T20:16:05.125Z,101495.44
2022-10-09T20:18:32.139Z,101495.44
2022-10-09T20:20:59.170Z,101491.03
2022-10-09T20:23:26.178Z,101491.91
2022-10-09T20:26:03.829Z,101484.81
2022-10-09T20:28:35.394Z,101484.78
2022-10-09T20:31:07.834Z,101480.34
2022-10-09T20:33:35.924Z,101471.47
2022-10-09T20:36:05.944Z,101475.91
2022-10-09T20:38:35.307Z,101471.50
2022-10-09T20:41:10.735Z,101474.16
2022-10-09T20:43:38.142Z,101458.16
2022-10-09T20:46:07.235Z,101460.84
2022-10-09T20:48:37.097Z,101457.31
2022-10-09T20:51:09.889Z,101451.97
2022-10-09T20:53:36.806Z,101450.19
2022-10-09T20:56:06.150Z,101445.75
2022-10-09T20:58:33.740Z,101443.09
2022-10-09T21:01:03.373Z,101440.44
2022-10-09T21:03:30.248Z,101440.44
2022-10-09T21:05:58.465Z,101437.78
2022-10-09T21:08:29.442Z,101429.81
2022-10-09T21:10:58.261Z,101434.25
2022-10-09T21:13:32.292Z,101433.34
2022-10-09T21:15:59.148Z,101432.47
2022-10-09T21:18:25.976Z,101433.34
2022-10-09T21:20:52.821Z,101432.47
2022-10-09T21:23:19.736Z,101425.34
2022-10-09T21:25:51.841Z,101420.91
2022-10-09T21:28:20.326Z,101416.50
2022-10-09T21:30:47.436Z,101422.72
2022-10-09T21:33:14.934Z,101418.28
2022-10-09T21:35:47.927Z,101411.19
2022-10-09T21:38:19.502Z,101414.75
2022-10-09T21:40:47.034Z,101412.97
2022-10-09T21:43:13.978Z,101405.84
2022-10-09T21:45:44.146Z,101402.28
2022-10-09T21:48:16.239Z,101412.94
2022-10-09T21:50:43.487Z,101405.88
2022-10-09T21:53:10.908Z,101402.31
2022-10-09T21:55:55.036Z,101394.34
2022-10-09T21:58:27.639Z,101386.38
2022-10-09T22:01:02.458Z,101382.81
2022-10-09T22:03:33.722Z,101384.56
2022-10-09T22:06:07.171Z,101386.34
2022-10-09T22:08:34.465Z,101385.44
2022-10-09T22:11:04.784Z,101382.75
2022-10-09T22:13:31.549Z,101375.69
2022-10-09T22:15:58.269Z,101374.78
2022-10-09T22:18:25.060Z,101371.22
2022-10-09T22:20:51.940Z,101373.03
2022-10-09T22:23:19.827Z,101368.56
2022-10-09T22:25:57.558Z,101371.25
2022-10-09T22:28:24.411Z,101363.28
2022-10-09T22:31:04.691Z,101369.47
2022-10-09T22:33:31.670Z,101363.25
2022-10-09T22:36:03.681Z,101357.94
2022-10-09T22:38:30.999Z,101355.28
2022-10-09T22:41:16.000Z,101345.50
2022-10-09T22:43:45.189Z,101349.06
2022-10-09T22:46:14.740Z,101348.19
2022-10-09T22:48:41.760Z,101341.09
2022-10-09T22:51:10.515Z,101335.75
2022-10-09T22:53:37.932Z,101337.53
2022-10-09T22:56:06.171Z,101334.88
2022-10-09T22:58:33.493Z,101340.16
2022-10-09T23:01:10.120Z,101336.63
2022-10-09T23:03:36.966Z,101342.84
2022-10-09T23:06:30.069Z,101332.19
2022-10-09T23:08:56.767Z,101332.19
2022-10-09T23:11:24.366Z,101331.31
2022-10-09T23:13:55.891Z,101337.47
2022-10-09T23:16:23.238Z,101326.84
2022-10-09T23:18:50.381Z,101321.53
2022-10-09T23:21:19.589Z,101321.50
2022-10-09T23:23:47.314Z,101317.06
2022-10-09T23:26:28.522Z,101311.78
2022-10-09T23:29:03.709Z,101315.28
2022-10-09T23:31:30.522Z,101314.38
2022-10-09T23:33:58.087Z,101306.44
2022-10-09T23:36:27.154Z,101306.44
2022-10-09T23:38:54.325Z,101314.38
2022-10-09T23:41:23.349Z,101304.66
2022-10-09T23:43:50.203Z,101303.72
2022-10-09T23:46:24.216Z,101294.00
2022-10-09T23:48:51.445Z,101298.41
2022-10-09T23:51:19.297Z,101304.59
2022-10-09T23:53:46.100Z,101297.50
2022-10-09T23:56:22.127Z,101299.22
2022-10-09T23:58:49.363Z,101293.88
